메인 페이지
METAR-TAF:

METAR-TAF

공항 :

포르투알레그리, 히우그란지두술, 브라질

위도: 30-00S, 경도: 051-11W, 고도: 3m

현재 날씨관측

예보는 1 시간 6분 전, 07:00시(UTC)에 발표되었습니다.
4kt
온도 23°C
습도 83%
기압 1014 hPa
시정 10km 이상
고도 3500ft 상공 구름 조금
고도 4000ft 상공 구름 조금, 타워링 적운.

METAR: SBPA 150700Z 26004KT 9999 FEW035 FEW040TCU 23/20 Q1014

시각: 06:06 (08:06 UTC)

예보

예보는 5 시간 6분 전, 03:00시(UTC)에 발표되었습니다.
예보 대상 시간: 15일 06시부터 16일 06시까지 (UTC)
남남서7kt
시정 10km 이상
1500m 미만 상공 구름 및 적란운 없음
전환 중
15일 06시부터 15일 07시까지 (UTC)
시정 10km 이상
고도 3500ft 상공 구름 보통
일시적
15일 07시부터 15일 13시까지 (UTC)
시정: 8000m
고도 3000ft 상공 구름 보통
고도 3500ft 상공 구름 조금, 적란운.
뇌우, 비
전환 중
15일 13시부터 15일 1시까지 (UTC)
남동10kt
고도 3500ft 상공 구름 많음
전환 중
15일 22시부터 15일 24시까지 (UTC)
8kt
고도 4000ft 상공 구름 보통

TAF: SBPA 150300Z 1506/1606 20007KT CAVOK TX31/1518Z TN21/1606Z BECMG 1506/1507 9999 SCT035 TEMPO 1507/1513 8000 TSRA SCT030 FEW035CB BECMG 1513/151 5 13010KT BKN035 BECMG 1522/1524 09008KT SCT040 RMK PCX

4,000개 이상의 공항 관측 자료 및 예보 (METAR 및 TAF 보고).

지도상에서 검색 가능한 기상관측소가 노란 점과 빨간 점으로 표시되어 있습니다.

기상관측소 명을 보려면 표시 위로 마우스를 이동하세요.

날씨 관측과 예보를 보려면 클릭하세요.

지도 변경 : 확대하려면 엑스 표시가 있는 녹색 버튼, 축소하려면 빼기 표시가 있는 녹색 버튼, 다음 페이지의 지도를 보려면 녹색 화살표를 클릭하세요.


METAR-TAF: